createdAt,value
2023-02-16T00:01:30.330Z,102375.59
2023-02-16T00:04:13.480Z,102381.47
2023-02-16T00:06:45.877Z,102382.41
2023-02-16T00:09:18.719Z,102376.31
2023-02-16T00:12:11.836Z,102375.38
2023-02-16T00:14:43.935Z,102375.13
2023-02-16T00:17:15.962Z,102373.47
2023-02-16T00:19:47.975Z,102375.91
2023-02-16T00:22:19.960Z,102364.53
2023-02-16T00:24:52.306Z,102368.00
2023-02-16T00:27:24.275Z,102360.88
2023-02-16T00:29:56.396Z,102366.94
2023-02-16T00:32:28.539Z,102358.09
2023-02-16T00:35:01.127Z,102360.59
2023-02-16T00:37:33.077Z,102365.84
2023-02-16T00:40:05.591Z,102355.41
2023-02-16T00:42:38.311Z,102350.22
2023-02-16T00:45:21.685Z,102357.00
2023-02-16T00:47:54.987Z,102350.81
2023-02-16T00:50:35.331Z,102344.03
2023-02-16T00:53:07.318Z,102348.28
2023-02-16T00:55:42.042Z,102335.94
2023-02-16T00:58:26.168Z,102335.94
2023-02-16T01:01:08.913Z,102343.63
2023-02-16T01:03:41.422Z,102338.44
2023-02-16T01:06:31.796Z,102335.94
2023-02-16T01:09:35.138Z,102330.66
2023-02-16T01:12:17.353Z,102329.88
2023-02-16T01:14:53.861Z,102328.09
2023-02-16T01:17:25.923Z,102326.41
2023-02-16T01:19:57.928Z,102337.72
2023-02-16T01:22:33.494Z,102338.31
2023-02-16T01:25:05.966Z,102338.38
2023-02-16T01:27:39.158Z,102344.31
2023-02-16T01:30:21.960Z,102343.38
2023-02-16T01:32:54.101Z,102339.84
2023-02-16T01:35:33.174Z,102337.13
2023-02-16T01:38:05.228Z,102339.72
2023-02-16T01:40:57.874Z,102335.03
2023-02-16T01:43:46.983Z,102336.78
2023-02-16T01:46:25.902Z,102334.00
2023-02-16T01:48:57.844Z,102332.16
2023-02-16T01:51:50.624Z,102337.69
2023-02-16T01:54:31.799Z,102336.69
2023-02-16T01:57:05.816Z,102337.50
2023-02-16T01:59:44.062Z,102332.00
2023-02-16T02:02:32.859Z,102331.91
2023-02-16T02:05:37.096Z,102330.81
2023-02-16T02:08:19.252Z,102330.81
2023-02-16T02:11:14.395Z,102324.75
2023-02-16T02:13:55.190Z,102325.53
2023-02-16T02:16:28.832Z,102321.75
2023-02-16T02:19:00.998Z,102329.59
2023-02-16T02:22:16.776Z,102325.16
2023-02-16T02:24:57.203Z,102320.81
2023-02-16T02:27:34.450Z,102315.56
2023-02-16T02:30:27.811Z,102317.31
2023-02-16T02:33:32.867Z,102314.56
2023-02-16T02:36:40.532Z,102312.66
2023-02-16T02:39:31.289Z,102311.91
2023-02-16T02:42:34.127Z,102310.94
2023-02-16T02:45:23.347Z,102302.28
2023-02-16T02:47:55.348Z,102306.47
2023-02-16T02:51:12.274Z,102304.69
2023-02-16T02:54:16.280Z,102298.63
2023-02-16T02:57:45.174Z,102295.09
2023-02-16T03:00:41.819Z,102291.50
2023-02-16T03:03:20.860Z,102292.44
2023-02-16T03:06:13.944Z,102290.75
2023-02-16T03:08:51.993Z,102292.38
2023-02-16T03:11:48.288Z,102282.84
2023-02-16T03:14:31.278Z,102277.28
2023-02-16T03:17:35.577Z,102281.53
2023-02-16T03:20:31.619Z,102280.72
2023-02-16T03:23:24.584Z,102273.13
2023-02-16T03:26:15.431Z,102267.56
2023-02-16T03:29:06.743Z,102265.75
2023-02-16T03:31:40.294Z,102261.38
2023-02-16T03:34:12.906Z,102259.56
2023-02-16T03:36:52.913Z,102257.31
2023-02-16T03:39:27.936Z,102252.13
2023-02-16T03:41:59.933Z,102258.03
2023-02-16T03:44:31.996Z,102258.84
2023-02-16T03:47:04.025Z,102265.97
2023-02-16T03:49:35.965Z,102254.97
2023-02-16T03:52:07.940Z,102254.03
2023-02-16T03:54:39.928Z,102244.47
2023-02-16T03:57:11.861Z,102239.94
2023-02-16T03:59:43.898Z,102234.69
2023-02-16T04:02:15.977Z,102243.59
2023-02-16T04:04:48.052Z,102241.06
2023-02-16T04:07:20.134Z,102237.59
2023-02-16T04:09:52.084Z,102242.78
2023-02-16T04:12:36.355Z,102249.66
2023-02-16T04:15:12.814Z,102245.50
2023-02-16T04:17:45.314Z,102258.09
2023-02-16T04:20:20.709Z,102256.31
2023-02-16T04:22:53.538Z,102263.91
2023-02-16T04:25:26.237Z,102262.13
2023-02-16T04:27:58.374Z,102258.91
2023-02-16T04:30:32.486Z,102259.16
2023-02-16T04:33:04.688Z,102252.19
2023-02-16T04:35:36.693Z,102248.72
2023-02-16T04:38:08.758Z,102258.97
2023-02-16T04:40:40.833Z,102260.63
2023-02-16T04:43:12.804Z,102269.47
2023-02-16T04:45:44.806Z,102253.16
2023-02-16T04:48:16.757Z,102263.75
2023-02-16T04:50:48.757Z,102261.88
2023-02-16T04:53:20.745Z,102266.34
2023-02-16T04:55:52.736Z,102250.44
2023-02-16T04:58:24.823Z,102254.16
2023-02-16T05:00:56.781Z,102248.06
2023-02-16T05:03:28.942Z,102250.09
2023-02-16T05:06:01.162Z,102254.31
2023-02-16T05:08:33.143Z,102253.16
2023-02-16T05:11:23.840Z,102259.16
2023-02-16T05:14:18.805Z,102243.53
2023-02-16T05:16:51.152Z,102240.88
2023-02-16T05:19:23.160Z,102244.31
2023-02-16T05:21:55.159Z,102244.31
2023-02-16T05:24:28.540Z,102242.66
2023-02-16T05:27:02.109Z,102245.06
2023-02-16T05:29:34.727Z,102251.13
2023-02-16T05:32:06.821Z,102248.84
2023-02-16T05:34:38.959Z,102244.44
2023-02-16T05:37:12.161Z,102240.88
2023-02-16T05:39:44.831Z,102236.72
2023-02-16T05:42:16.833Z,102232.16
2023-02-16T05:44:48.967Z,102228.94
2023-02-16T05:47:20.950Z,102230.75
2023-02-16T05:49:52.942Z,102229.34
2023-02-16T05:52:24.887Z,102234.78
2023-02-16T05:54:56.857Z,102245.19
2023-02-16T05:57:28.909Z,102243.72
2023-02-16T06:00:01.257Z,102244.13
2023-02-16T06:02:33.279Z,102241.00
2023-02-16T06:05:05.589Z,102252.13
2023-02-16T06:07:37.546Z,102252.47
2023-02-16T06:10:10.094Z,102258.22
2023-02-16T06:12:44.602Z,102263.28
2023-02-16T06:15:18.062Z,102258.22
2023-02-16T06:17:51.467Z,102253.19
2023-02-16T06:20:23.450Z,102254.13
2023-02-16T06:22:55.474Z,102250.66
2023-02-16T06:25:27.524Z,102246.34
2023-02-16T06:27:59.562Z,102241.16
2023-02-16T06:30:31.806Z,102244.34
2023-02-16T06:33:05.747Z,102238.63
2023-02-16T06:35:37.730Z,102246.56
2023-02-16T06:38:09.857Z,102243.19
2023-02-16T06:40:41.878Z,102241.56
2023-02-16T06:43:14.285Z,102238.31
2023-02-16T06:45:47.273Z,102239.47
2023-02-16T06:48:19.449Z,102246.16
2023-02-16T06:50:52.083Z,102230.88
2023-02-16T06:53:25.520Z,102243.78
2023-02-16T06:55:57.609Z,102248.44
2023-02-16T06:58:29.637Z,102251.06
2023-02-16T07:01:01.669Z,102257.66
2023-02-16T07:03:34.050Z,102245.38
2023-02-16T07:06:07.052Z,102246.50
2023-02-16T07:08:39.068Z,102243.84
2023-02-16T07:11:11.506Z,102251.97
2023-02-16T07:13:44.009Z,102260.47
2023-02-16T07:16:16.535Z,102265.38
2023-02-16T07:18:49.005Z,102254.94
2023-02-16T07:21:21.048Z,102260.56
2023-02-16T07:23:53.094Z,102267.34
2023-02-16T07:26:25.079Z,102264.81
2023-02-16T07:28:57.018Z,102271.94
2023-02-16T07:31:29.173Z,102261.78
2023-02-16T07:34:01.373Z,102266.91
2023-02-16T07:36:33.547Z,102259.91
2023-02-16T07:39:05.805Z,102275.38
2023-02-16T07:41:37.835Z,102256.75
2023-02-16T07:44:09.911Z,102257.03
2023-02-16T07:46:41.872Z,102264.31
2023-02-16T07:49:13.837Z,102260.63
2023-02-16T07:51:45.892Z,102261.44
2023-02-16T07:54:17.828Z,102259.84
2023-02-16T07:56:49.840Z,102267.72
2023-02-16T07:59:21.899Z,102249.28
2023-02-16T08:01:54.009Z,102244.50
2023-02-16T08:04:26.317Z,102248.19
2023-02-16T08:06:58.463Z,102242.41
2023-02-16T08:09:30.518Z,102239.47
2023-02-16T08:12:02.699Z,102251.78
2023-02-16T08:14:34.778Z,102260.69
2023-02-16T08:17:08.129Z,102260.66
2023-02-16T08:19:40.826Z,102254.97
2023-02-16T08:22:12.852Z,102253.53
2023-02-16T08:24:45.048Z,102252.06
2023-02-16T08:27:17.233Z,102235.00
2023-02-16T08:29:49.278Z,102233.34
2023-02-16T08:32:21.414Z,102233.28
2023-02-16T08:34:53.532Z,102245.22
2023-02-16T08:37:25.555Z,102248.94
2023-02-16T08:40:00.770Z,102245.88
2023-02-16T08:42:32.998Z,102246.19
2023-02-16T08:45:07.477Z,102265.75
2023-02-16T08:47:39.515Z,102260.44
2023-02-16T08:50:11.693Z,102255.28
2023-02-16T08:52:43.721Z,102253.06
2023-02-16T08:55:15.789Z,102246.16
2023-02-16T08:57:48.137Z,102255.66
2023-02-16T09:00:35.846Z,102247.22
2023-02-16T09:03:07.988Z,102253.72
2023-02-16T09:05:40.531Z,102278.06
2023-02-16T09:08:12.923Z,102253.75
2023-02-16T09:10:45.061Z,102270.66
2023-02-16T09:13:17.064Z,102269.06
2023-02-16T09:15:49.594Z,102265.88
2023-02-16T09:18:21.696Z,102262.06
2023-02-16T09:20:53.858Z,102255.66
2023-02-16T09:23:26.118Z,102268.22
2023-02-16T09:26:02.129Z,102266.28
2023-02-16T09:28:36.366Z,102269.00
2023-02-16T09:31:25.559Z,102262.28
2023-02-16T09:34:17.045Z,102265.16
2023-02-16T09:36:50.372Z,102267.78
2023-02-16T09:39:22.935Z,102272.53
2023-02-16T09:42:28.446Z,102274.84
2023-02-16T09:45:14.281Z,102265.72
2023-02-16T09:47:49.855Z,102273.09
2023-02-16T09:50:50.715Z,102267.00
2023-02-16T09:53:39.623Z,102269.34
2023-02-16T09:56:28.189Z,102274.28
2023-02-16T09:59:25.806Z,102266.06
2023-02-16T10:02:32.578Z,102268.97
2023-02-16T10:05:08.562Z,102280.91
2023-02-16T10:08:09.513Z,102275.97
2023-02-16T10:10:57.131Z,102266.78
2023-02-16T10:13:47.293Z,102262.84
2023-02-16T10:16:28.574Z,102264.72
2023-02-16T10:19:09.476Z,102264.19
2023-02-16T10:21:48.525Z,102275.94
2023-02-16T10:24:20.954Z,102278.63
2023-02-16T10:27:10.060Z,102278.16
2023-02-16T10:29:42.820Z,102276.69
2023-02-16T10:32:37.283Z,102281.19
2023-02-16T10:35:15.417Z,102281.63
2023-02-16T10:38:09.379Z,102280.56
2023-02-16T10:41:00.988Z,102276.25
2023-02-16T10:44:01.763Z,102279.09
2023-02-16T10:46:44.366Z,102284.81
2023-02-16T10:49:18.020Z,102280.72
2023-02-16T10:51:52.367Z,102279.94
2023-02-16T10:54:31.898Z,102282.88
2023-02-16T10:57:20.560Z,102283.13
2023-02-16T10:59:54.897Z,102280.94
2023-02-16T11:02:41.680Z,102273.38
2023-02-16T11:05:39.408Z,102276.88
2023-02-16T11:08:12.969Z,102267.41
2023-02-16T11:10:52.699Z,102275.03
2023-02-16T11:13:34.299Z,102276.94
2023-02-16T11:16:21.133Z,102274.09
2023-02-16T11:19:13.553Z,102271.19
2023-02-16T11:21:52.151Z,102272.47
2023-02-16T11:24:32.089Z,102272.97
2023-02-16T11:27:19.600Z,102274.94
2023-02-16T11:29:51.712Z,102275.97
2023-02-16T11:32:24.440Z,102277.13
2023-02-16T11:34:57.706Z,102286.59
2023-02-16T11:37:34.147Z,102268.09
2023-02-16T11:40:21.659Z,102282.19
2023-02-16T11:42:59.863Z,102265.72
2023-02-16T11:45:35.599Z,102272.38
2023-02-16T11:48:32.687Z,102271.28
2023-02-16T11:51:09.262Z,102275.25
2023-02-16T11:53:44.532Z,102272.09
2023-02-16T11:56:29.847Z,102262.59
2023-02-16T11:59:14.964Z,102261.44
2023-02-16T12:02:17.437Z,102257.28
2023-02-16T12:05:26.294Z,102266.16
2023-02-16T12:08:58.335Z,102264.25
2023-02-16T12:11:55.528Z,102257.63
2023-02-16T12:15:26.585Z,102257.38
2023-02-16T12:18:20.657Z,102250.16
2023-02-16T12:21:45.637Z,102257.69
2023-02-16T12:24:47.873Z,102249.44
2023-02-16T12:27:41.958Z,102246.88
2023-02-16T12:31:00.506Z,102249.88
2023-02-16T12:33:57.675Z,102253.41
2023-02-16T12:37:04.949Z,102244.66
2023-02-16T12:39:46.296Z,102230.56
2023-02-16T12:42:46.988Z,102222.84
2023-02-16T12:45:28.250Z,102218.59
2023-02-16T12:48:11.163Z,102215.91
2023-02-16T12:50:46.261Z,102215.31
2023-02-16T12:53:48.254Z,102205.72
2023-02-16T12:56:27.614Z,102210.59
2023-02-16T12:59:27.129Z,102205.88
2023-02-16T13:02:01.924Z,102208.53
2023-02-16T13:04:49.155Z,102190.81
2023-02-16T13:07:38.482Z,102193.53
2023-02-16T13:10:47.051Z,102189.25
2023-02-16T13:13:25.564Z,102173.25
2023-02-16T13:16:30.411Z,102170.06
2023-02-16T13:19:03.284Z,102169.72
2023-02-16T13:21:51.272Z,102158.88
2023-02-16T13:25:08.029Z,102148.75
2023-02-16T13:28:11.193Z,102154.41
2023-02-16T13:31:01.739Z,102147.13
2023-02-16T13:33:58.365Z,102160.69
2023-02-16T13:37:25.529Z,102148.72
2023-02-16T13:40:23.232Z,102153.91
2023-02-16T13:43:01.352Z,102149.38
2023-02-16T13:45:40.599Z,102163.25
2023-02-16T13:48:48.237Z,102153.53
2023-02-16T13:51:24.200Z,102160.28
2023-02-16T13:53:58.701Z,102155.94
2023-02-16T13:56:33.294Z,102167.59
2023-02-16T13:59:17.394Z,102157.16
2023-02-16T14:01:53.746Z,102159.53
2023-02-16T14:04:25.670Z,102160.63
2023-02-16T14:07:03.798Z,102151.81
2023-02-16T14:09:38.556Z,102161.19
2023-02-16T14:12:16.848Z,102152.41
2023-02-16T14:14:51.835Z,102153.28
2023-02-16T14:17:31.218Z,102147.13
2023-02-16T14:20:09.321Z,102138.28
2023-02-16T14:22:51.206Z,102145.47
2023-02-16T14:25:23.120Z,102136.13
2023-02-16T14:27:59.284Z,102149.09
2023-02-16T14:30:35.794Z,102151.81
2023-02-16T14:33:22.817Z,102147.50
2023-02-16T14:36:00.569Z,102151.81
2023-02-16T14:38:41.557Z,102151.56
2023-02-16T14:41:35.568Z,102154.03
2023-02-16T14:44:07.479Z,102152.88
2023-02-16T14:47:22.087Z,102155.44
2023-02-16T14:50:30.816Z,102158.88
2023-02-16T14:53:28.021Z,102149.41
2023-02-16T14:56:14.499Z,102147.72
2023-02-16T14:59:07.073Z,102153.66
2023-02-16T15:01:42.243Z,102154.34
2023-02-16T15:04:32.158Z,102148.16
2023-02-16T15:07:05.552Z,102151.78
2023-02-16T15:09:42.706Z,102157.00
2023-02-16T15:12:21.726Z,102152.63
2023-02-16T15:15:04.140Z,102158.41
2023-02-16T15:17:45.659Z,102157.75
2023-02-16T15:20:24.966Z,102159.63
2023-02-16T15:23:02.368Z,102157.91
2023-02-16T15:25:41.100Z,102146.41
2023-02-16T15:28:26.057Z,102146.59
2023-02-16T15:31:07.559Z,102127.34
2023-02-16T15:33:54.677Z,102126.63
2023-02-16T15:36:43.533Z,102136.31
2023-02-16T15:39:41.309Z,102128.41
2023-02-16T15:42:29.133Z,102122.97
2023-02-16T15:45:01.160Z,102119.50
2023-02-16T15:47:34.076Z,102114.22
2023-02-16T15:50:14.383Z,102122.09
2023-02-16T15:52:46.521Z,102116.00
2023-02-16T15:55:18.741Z,102117.81
2023-02-16T15:57:51.326Z,102114.41
2023-02-16T16:00:25.096Z,102096.31
2023-02-16T16:03:00.830Z,102108.44
2023-02-16T16:05:42.048Z,102102.28
2023-02-16T16:08:17.502Z,102100.41
2023-02-16T16:10:49.761Z,102102.31
2023-02-16T16:13:26.919Z,102094.47
2023-02-16T16:16:02.247Z,102090.25
2023-02-16T16:18:50.766Z,102104.19
2023-02-16T16:21:34.349Z,102105.97
2023-02-16T16:24:10.028Z,102111.88
2023-02-16T16:26:56.806Z,102112.78
2023-02-16T16:29:47.618Z,102110.19
2023-02-16T16:32:28.902Z,102102.44
2023-02-16T16:35:01.017Z,102099.91
2023-02-16T16:37:37.417Z,102096.34
2023-02-16T16:40:18.817Z,102092.09
2023-02-16T16:43:28.524Z,102089.56
2023-02-16T16:46:30.439Z,102088.53
2023-02-16T16:49:06.363Z,102102.28
2023-02-16T16:51:44.091Z,102094.44
2023-02-16T16:54:35.879Z,102084.97
2023-02-16T16:57:17.498Z,102082.38
2023-02-16T16:59:49.475Z,102073.84
2023-02-16T17:02:21.426Z,102074.63
2023-02-16T17:04:53.424Z,102069.53
2023-02-16T17:07:25.417Z,102069.38
2023-02-16T17:09:57.803Z,102068.59
2023-02-16T17:12:30.099Z,102061.75
2023-02-16T17:15:03.276Z,102057.31
2023-02-16T17:17:35.553Z,102046.00
2023-02-16T17:20:14.909Z,102057.22
2023-02-16T17:22:47.212Z,102049.41
2023-02-16T17:25:19.728Z,102051.81
2023-02-16T17:27:51.861Z,102062.34
2023-02-16T17:30:24.136Z,102054.50
2023-02-16T17:32:56.190Z,102055.22
2023-02-16T17:35:28.852Z,102059.69
2023-02-16T17:38:19.601Z,102057.16
2023-02-16T17:40:54.513Z,102055.53
2023-02-16T17:43:27.628Z,102054.69
2023-02-16T17:46:04.756Z,102054.75
2023-02-16T17:48:38.228Z,102048.53
2023-02-16T17:51:17.263Z,102060.75
2023-02-16T17:53:50.520Z,102059.13
2023-02-16T17:56:25.100Z,102062.63
2023-02-16T17:58:57.267Z,102055.75
2023-02-16T18:01:30.030Z,102061.00
2023-02-16T18:04:04.183Z,102059.25
2023-02-16T18:06:36.919Z,102055.09
2023-02-16T18:09:16.067Z,102047.16
2023-02-16T18:11:48.214Z,102053.19
2023-02-16T18:14:20.338Z,102055.81
2023-02-16T18:16:53.106Z,102046.16
2023-02-16T18:19:26.668Z,102039.19
2023-02-16T18:21:58.716Z,102051.44
2023-02-16T18:24:31.655Z,102038.41
2023-02-16T18:27:03.834Z,102052.41
2023-02-16T18:29:35.883Z,102045.31
2023-02-16T18:32:08.441Z,102044.47
2023-02-16T18:34:40.706Z,102038.44
2023-02-16T18:37:12.736Z,102042.03
2023-02-16T18:39:44.892Z,102028.97
2023-02-16T18:42:17.181Z,102031.56
2023-02-16T18:44:50.756Z,102030.59
2023-02-16T18:47:22.875Z,102028.81
2023-02-16T18:49:56.417Z,102032.38
2023-02-16T18:52:28.475Z,102035.75
2023-02-16T18:55:00.581Z,102028.69
2023-02-16T18:57:32.620Z,102024.38
2023-02-16T19:00:06.925Z,102019.16
2023-02-16T19:02:41.062Z,102017.25
2023-02-16T19:05:13.244Z,102021.44
2023-02-16T19:07:45.230Z,102011.97
2023-02-16T19:10:19.079Z,102011.03
2023-02-16T19:12:51.590Z,102010.09
2023-02-16T19:15:23.851Z,102010.31
2023-02-16T19:17:55.872Z,102007.72
2023-02-16T19:20:29.731Z,102011.97
2023-02-16T19:23:01.746Z,102005.13
2023-02-16T19:25:33.714Z,101999.09
2023-02-16T19:28:05.858Z,102003.44
2023-02-16T19:30:38.076Z,101996.47
2023-02-16T19:33:10.115Z,101998.22
2023-02-16T19:35:42.163Z,101992.13
2023-02-16T19:38:15.461Z,101997.13
2023-02-16T19:40:48.348Z,101993.66
2023-02-16T19:43:21.327Z,101991.06
2023-02-16T19:45:53.500Z,101984.34
2023-02-16T19:48:25.500Z,101977.28
2023-02-16T19:50:59.532Z,101979.66
2023-02-16T19:53:32.678Z,101982.38
2023-02-16T19:56:07.634Z,101971.91
2023-02-16T19:58:39.970Z,101961.53
2023-02-16T20:01:24.466Z,101964.13
2023-02-16T20:03:58.153Z,101962.28
2023-02-16T20:06:32.997Z,101963.16
2023-02-16T20:09:05.700Z,101963.94
2023-02-16T20:11:39.665Z,101958.00
2023-02-16T20:14:12.565Z,101952.91
2023-02-16T20:16:44.662Z,101940.00
2023-02-16T20:19:16.650Z,101939.75
2023-02-16T20:21:48.683Z,101932.66
2023-02-16T20:24:20.864Z,101931.00
2023-02-16T20:26:52.906Z,101931.03
2023-02-16T20:29:25.192Z,101924.94
2023-02-16T20:31:58.745Z,101932.13
2023-02-16T20:34:32.319Z,101931.00
2023-02-16T20:37:04.491Z,101921.59
2023-02-16T20:39:36.532Z,101925.78
2023-02-16T20:42:08.913Z,101926.03
2023-02-16T20:44:43.547Z,101918.41
2023-02-16T20:47:18.891Z,101908.78
2023-02-16T20:50:00.634Z,101905.44
2023-02-16T20:52:32.656Z,101899.19
2023-02-16T20:55:04.842Z,101899.19
2023-02-16T20:57:37.692Z,101900.94
2023-02-16T21:00:17.223Z,101900.16
2023-02-16T21:02:53.082Z,101894.03
2023-02-16T21:05:25.150Z,101893.94
2023-02-16T21:07:57.325Z,101884.50
2023-02-16T21:10:29.382Z,101874.19
2023-02-16T21:13:01.411Z,101867.91
2023-02-16T21:15:36.704Z,101871.41
2023-02-16T21:18:08.772Z,101864.66
2023-02-16T21:20:41.108Z,101860.38
2023-02-16T21:23:14.630Z,101850.72
2023-02-16T21:25:46.896Z,101854.34
2023-02-16T21:28:21.425Z,101857.09
2023-02-16T21:30:53.993Z,101857.22
2023-02-16T21:33:26.191Z,101851.88
2023-02-16T21:36:38.938Z,101847.56
2023-02-16T21:39:13.045Z,101844.94
2023-02-16T21:41:45.182Z,101835.31
2023-02-16T21:44:18.174Z,101835.31
2023-02-16T21:46:59.298Z,101831.13
2023-02-16T21:49:31.687Z,101832.97
2023-02-16T21:52:03.897Z,101836.44
2023-02-16T21:54:54.411Z,101831.19
2023-02-16T21:57:26.461Z,101832.19
2023-02-16T21:59:58.494Z,101831.16
2023-02-16T22:02:30.461Z,101835.47
2023-02-16T22:05:02.448Z,101839.91
2023-02-16T22:07:34.471Z,101835.66
2023-02-16T22:10:07.479Z,101832.19
2023-02-16T22:12:39.489Z,101825.31
2023-02-16T22:15:11.478Z,101832.31
2023-02-16T22:17:43.608Z,101829.72
2023-02-16T22:20:17.164Z,101820.25
2023-02-16T22:22:52.583Z,101811.59
2023-02-16T22:25:24.564Z,101809.91
2023-02-16T22:27:56.602Z,101802.81
2023-02-16T22:30:28.730Z,101798.41
2023-02-16T22:33:00.736Z,101793.34
2023-02-16T22:35:33.840Z,101790.75
2023-02-16T22:38:05.956Z,101792.47
2023-02-16T22:40:38.264Z,101787.16
2023-02-16T22:43:10.395Z,101792.31
2023-02-16T22:45:42.472Z,101788.13
2023-02-16T22:48:14.523Z,101789.81
2023-02-16T22:51:01.389Z,101793.41
2023-02-16T22:53:34.530Z,101790.81
2023-02-16T22:56:09.820Z,101791.78
2023-02-16T22:58:42.047Z,101782.34
2023-02-16T23:01:20.268Z,101785.75
2023-02-16T23:03:57.492Z,101791.00
2023-02-16T23:06:36.622Z,101776.91
2023-02-16T23:09:21.595Z,101777.78
2023-02-16T23:11:53.637Z,101772.53
2023-02-16T23:14:26.623Z,101770.84
2023-02-16T23:16:59.447Z,101763.19
2023-02-16T23:19:32.567Z,101756.28
2023-02-16T23:22:04.538Z,101756.34
2023-02-16T23:24:36.688Z,101755.34
2023-02-16T23:27:08.759Z,101758.69
2023-02-16T23:29:40.685Z,101765.75
2023-02-16T23:32:12.645Z,101756.16
2023-02-16T23:34:44.659Z,101762.44
2023-02-16T23:37:16.702Z,101763.16
2023-02-16T23:39:48.669Z,101761.44
2023-02-16T23:42:21.528Z,101757.19
2023-02-16T23:44:57.140Z,101755.53
2023-02-16T23:47:29.284Z,101754.81
2023-02-16T23:50:01.488Z,101748.88
2023-02-16T23:52:36.370Z,101736.66
2023-02-16T23:55:16.397Z,101749.53
2023-02-16T23:57:48.375Z,101740.88
